sensor_id;sensor_type;location;lat;lon;timestamp;temperature;humidity
770;DHT22;368;48.698;9.116;2023-08-20T00:01:25;20.40;99.90
770;DHT22;368;48.698;9.116;2023-08-20T00:03:52;20.30;99.90
770;DHT22;368;48.698;9.116;2023-08-20T00:06:20;20.30;99.90
770;DHT22;368;48.698;9.116;2023-08-20T00:08:48;20.30;99.90
770;DHT22;368;48.698;9.116;2023-08-20T00:11:16;20.20;99.90
770;DHT22;368;48.698;9.116;2023-08-20T00:13:43;20.20;99.90
770;DHT22;368;48.698;9.116;2023-08-20T00:16:10;20.20;99.90
770;DHT22;368;48.698;9.116;2023-08-20T00:18:38;20.20;99.90
770;DHT22;368;48.698;9.116;2023-08-20T00:21:06;20.00;99.90
770;DHT22;368;48.698;9.116;2023-08-20T00:23:33;20.10;99.90
770;DHT22;368;48.698;9.116;2023-08-20T00:26:01;20.10;99.90
770;DHT22;368;48.698;9.116;2023-08-20T00:28:30;20.30;99.90
770;DHT22;368;48.698;9.116;2023-08-20T00:30:58;20.30;99.90
770;DHT22;368;48.698;9.116;2023-08-20T00:33:25;20.30;99.90
770;DHT22;368;48.698;9.116;2023-08-20T00:35:52;20.10;99.90
770;DHT22;368;48.698;9.116;2023-08-20T00:38:19;20.00;99.90
770;DHT22;368;48.698;9.116;2023-08-20T00:40:45;20.10;99.90
770;DHT22;368;48.698;9.116;2023-08-20T00:43:12;20.20;99.90
770;DHT22;368;48.698;9.116;2023-08-20T00:45:42;20.20;99.90
770;DHT22;368;48.698;9.116;2023-08-20T00:48:09;20.20;99.90
770;DHT22;368;48.698;9.116;2023-08-20T00:50:37;20.30;99.90
770;DHT22;368;48.698;9.116;2023-08-20T00:53:05;20.30;99.90
770;DHT22;368;48.698;9.116;2023-08-20T00:55:32;20.10;99.90
770;DHT22;368;48.698;9.116;2023-08-20T00:57:59;20.10;99.90
770;DHT22;368;48.698;9.116;2023-08-20T01:00:26;20.00;99.90
770;DHT22;368;48.698;9.116;2023-08-20T01:02:55;20.20;99.90
770;DHT22;368;48.698;9.116;2023-08-20T01:05:21;20.30;99.90
770;DHT22;368;48.698;9.116;2023-08-20T01:07:58;20.30;99.90
770;DHT22;368;48.698;9.116;2023-08-20T01:10:33;20.20;99.90
770;DHT22;368;48.698;9.116;2023-08-20T01:13:00;20.00;99.90
770;DHT22;368;48.698;9.116;2023-08-20T01:15:27;19.90;99.90
770;DHT22;368;48.698;9.116;2023-08-20T01:17:55;19.90;99.90
770;DHT22;368;48.698;9.116;2023-08-20T01:20:27;19.80;99.90
770;DHT22;368;48.698;9.116;2023-08-20T01:23:24;19.80;99.90
770;DHT22;368;48.698;9.116;2023-08-20T01:26:13;19.90;99.90
770;DHT22;368;48.698;9.116;2023-08-20T01:28:45;20.10;99.90
770;DHT22;368;48.698;9.116;2023-08-20T01:31:12;20.10;99.90
770;DHT22;368;48.698;9.116;2023-08-20T01:33:40;20.00;99.90
770;DHT22;368;48.698;9.116;2023-08-20T01:36:07;20.00;99.90
770;DHT22;368;48.698;9.116;2023-08-20T01:38:36;20.00;99.90
770;DHT22;368;48.698;9.116;2023-08-20T01:41:03;19.90;99.90
770;DHT22;368;48.698;9.116;2023-08-20T01:43:30;19.70;99.90
770;DHT22;368;48.698;9.116;2023-08-20T01:45:58;19.60;99.90
770;DHT22;368;48.698;9.116;2023-08-20T01:48:24;19.60;99.90
770;DHT22;368;48.698;9.116;2023-08-20T01:50:51;19.60;99.90
770;DHT22;368;48.698;9.116;2023-08-20T01:53:18;19.50;99.90
770;DHT22;368;48.698;9.116;2023-08-20T01:55:45;19.70;99.90
770;DHT22;368;48.698;9.116;2023-08-20T01:58:12;19.80;99.90
770;DHT22;368;48.698;9.116;2023-08-20T02:00:39;19.80;99.90
770;DHT22;368;48.698;9.116;2023-08-20T02:03:07;19.70;99.90
770;DHT22;368;48.698;9.116;2023-08-20T02:05:34;19.70;99.90
770;DHT22;368;48.698;9.116;2023-08-20T02:08:00;19.70;99.90
770;DHT22;368;48.698;9.116;2023-08-20T02:10:27;19.70;99.90
770;DHT22;368;48.698;9.116;2023-08-20T02:12:54;19.60;99.90
770;DHT22;368;48.698;9.116;2023-08-20T02:15:21;19.50;99.90
770;DHT22;368;48.698;9.116;2023-08-20T02:17:48;19.50;99.90
770;DHT22;368;48.698;9.116;2023-08-20T02:20:16;19.50;99.90
770;DHT22;368;48.698;9.116;2023-08-20T02:22:43;19.40;99.90
770;DHT22;368;48.698;9.116;2023-08-20T02:25:09;19.40;99.90
770;DHT22;368;48.698;9.116;2023-08-20T02:27:36;19.40;99.90
770;DHT22;368;48.698;9.116;2023-08-20T02:30:04;19.40;99.90
770;DHT22;368;48.698;9.116;2023-08-20T02:32:31;19.30;99.90
770;DHT22;368;48.698;9.116;2023-08-20T02:34:59;19.30;99.90
770;DHT22;368;48.698;9.116;2023-08-20T02:37:27;19.30;99.90
770;DHT22;368;48.698;9.116;2023-08-20T02:39:54;19.20;99.90
770;DHT22;368;48.698;9.116;2023-08-20T02:42:20;19.30;99.90
770;DHT22;368;48.698;9.116;2023-08-20T02:44:47;19.40;99.90
770;DHT22;368;48.698;9.116;2023-08-20T02:47:14;19.40;99.90
770;DHT22;368;48.698;9.116;2023-08-20T02:49:41;19.40;99.90
770;DHT22;368;48.698;9.116;2023-08-20T02:52:08;19.30;99.90
770;DHT22;368;48.698;9.116;2023-08-20T02:54:36;19.30;99.90
770;DHT22;368;48.698;9.116;2023-08-20T02:57:03;19.30;99.90
770;DHT22;368;48.698;9.116;2023-08-20T02:59:30;19.20;99.90
770;DHT22;368;48.698;9.116;2023-08-20T03:01:57;19.20;99.90
770;DHT22;368;48.698;9.116;2023-08-20T03:04:23;19.20;99.90
770;DHT22;368;48.698;9.116;2023-08-20T03:06:50;19.10;99.90
770;DHT22;368;48.698;9.116;2023-08-20T03:09:17;19.10;99.90
770;DHT22;368;48.698;9.116;2023-08-20T03:11:45;19.10;99.90
770;DHT22;368;48.698;9.116;2023-08-20T03:14:12;19.20;99.90
770;DHT22;368;48.698;9.116;2023-08-20T03:16:39;19.10;99.90
770;DHT22;368;48.698;9.116;2023-08-20T03:19:05;19.10;99.90
770;DHT22;368;48.698;9.116;2023-08-20T03:21:32;19.10;99.90
770;DHT22;368;48.698;9.116;2023-08-20T03:23:59;18.90;99.90
770;DHT22;368;48.698;9.116;2023-08-20T03:26:26;18.90;99.90
770;DHT22;368;48.698;9.116;2023-08-20T03:28:54;18.80;99.90
770;DHT22;368;48.698;9.116;2023-08-20T03:31:21;19.00;99.90
770;DHT22;368;48.698;9.116;2023-08-20T03:33:48;18.90;99.90
770;DHT22;368;48.698;9.116;2023-08-20T03:36:15;18.90;99.90
770;DHT22;368;48.698;9.116;2023-08-20T03:38:42;18.90;99.90
770;DHT22;368;48.698;9.116;2023-08-20T03:41:09;18.70;99.90
770;DHT22;368;48.698;9.116;2023-08-20T03:43:36;18.70;99.90
770;DHT22;368;48.698;9.116;2023-08-20T03:46:04;18.70;99.90
770;DHT22;368;48.698;9.116;2023-08-20T03:48:31;18.60;99.90
770;DHT22;368;48.698;9.116;2023-08-20T03:50:57;18.60;99.90
770;DHT22;368;48.698;9.116;2023-08-20T03:53:24;18.60;99.90
770;DHT22;368;48.698;9.116;2023-08-20T03:55:51;18.70;99.90
770;DHT22;368;48.698;9.116;2023-08-20T03:58:18;18.60;99.90
770;DHT22;368;48.698;9.116;2023-08-20T04:00:45;18.70;99.90
770;DHT22;368;48.698;9.116;2023-08-20T04:03:13;18.70;99.90
770;DHT22;368;48.698;9.116;2023-08-20T04:05:40;18.70;99.90
770;DHT22;368;48.698;9.116;2023-08-20T04:08:07;18.60;99.90
770;DHT22;368;48.698;9.116;2023-08-20T04:10:34;18.60;99.90
770;DHT22;368;48.698;9.116;2023-08-20T04:13:01;18.70;99.90
770;DHT22;368;48.698;9.116;2023-08-20T04:15:27;18.70;99.90
770;DHT22;368;48.698;9.116;2023-08-20T04:17:54;18.60;99.90
770;DHT22;368;48.698;9.116;2023-08-20T04:20:22;18.60;99.90
770;DHT22;368;48.698;9.116;2023-08-20T04:22:49;18.50;99.90
770;DHT22;368;48.698;9.116;2023-08-20T04:25:16;18.40;99.90
770;DHT22;368;48.698;9.116;2023-08-20T04:27:43;18.40;99.90
770;DHT22;368;48.698;9.116;2023-08-20T04:30:11;18.30;99.90
770;DHT22;368;48.698;9.116;2023-08-20T04:32:38;18.40;99.90
770;DHT22;368;48.698;9.116;2023-08-20T04:35:05;18.50;99.90
770;DHT22;368;48.698;9.116;2023-08-20T04:37:34;18.60;99.90
770;DHT22;368;48.698;9.116;2023-08-20T04:40:00;18.50;99.90
770;DHT22;368;48.698;9.116;2023-08-20T04:42:30;18.50;99.90
770;DHT22;368;48.698;9.116;2023-08-20T04:44:56;18.50;99.90
770;DHT22;368;48.698;9.116;2023-08-20T04:47:23;18.50;99.90
770;DHT22;368;48.698;9.116;2023-08-20T04:49:50;18.60;99.90
770;DHT22;368;48.698;9.116;2023-08-20T04:52:17;18.60;99.90
770;DHT22;368;48.698;9.116;2023-08-20T04:54:46;18.60;99.90
770;DHT22;368;48.698;9.116;2023-08-20T04:57:12;18.50;99.90
770;DHT22;368;48.698;9.116;2023-08-20T04:59:39;18.60;99.90
770;DHT22;368;48.698;9.116;2023-08-20T05:02:08;18.60;99.90
770;DHT22;368;48.698;9.116;2023-08-20T05:04:35;18.70;99.90
770;DHT22;368;48.698;9.116;2023-08-20T05:07:02;18.60;99.90
770;DHT22;368;48.698;9.116;2023-08-20T05:09:29;18.80;99.90
770;DHT22;368;48.698;9.116;2023-08-20T05:11:57;18.90;99.90
770;DHT22;368;48.698;9.116;2023-08-20T05:14:23;19.00;99.90
770;DHT22;368;48.698;9.116;2023-08-20T05:16:50;19.20;99.90
770;DHT22;368;48.698;9.116;2023-08-20T05:19:17;19.30;99.90
770;DHT22;368;48.698;9.116;2023-08-20T05:21:44;19.50;99.90
770;DHT22;368;48.698;9.116;2023-08-20T05:24:10;19.60;99.90
770;DHT22;368;48.698;9.116;2023-08-20T05:26:37;19.80;99.90
770;DHT22;368;48.698;9.116;2023-08-20T05:29:05;19.90;99.90
770;DHT22;368;48.698;9.116;2023-08-20T05:31:33;19.90;99.90
770;DHT22;368;48.698;9.116;2023-08-20T05:34:00;19.70;99.90
770;DHT22;368;48.698;9.116;2023-08-20T05:36:27;19.70;99.90
770;DHT22;368;48.698;9.116;2023-08-20T05:38:53;19.70;99.90
770;DHT22;368;48.698;9.116;2023-08-20T05:41:20;19.60;99.90
770;DHT22;368;48.698;9.116;2023-08-20T05:43:47;19.80;99.90
770;DHT22;368;48.698;9.116;2023-08-20T05:46:15;19.90;99.90
770;DHT22;368;48.698;9.116;2023-08-20T05:48:42;20.10;99.90
770;DHT22;368;48.698;9.116;2023-08-20T05:51:09;20.30;99.90
770;DHT22;368;48.698;9.116;2023-08-20T05:53:35;20.70;99.90
770;DHT22;368;48.698;9.116;2023-08-20T05:56:02;21.00;99.90
770;DHT22;368;48.698;9.116;2023-08-20T05:58:29;21.40;99.90
770;DHT22;368;48.698;9.116;2023-08-20T06:00:56;21.50;99.90
770;DHT22;368;48.698;9.116;2023-08-20T06:03:24;21.50;99.90
770;DHT22;368;48.698;9.116;2023-08-20T06:05:51;22.20;99.90
770;DHT22;368;48.698;9.116;2023-08-20T06:08:17;22.40;99.90
770;DHT22;368;48.698;9.116;2023-08-20T06:10:44;22.60;99.90
770;DHT22;368;48.698;9.116;2023-08-20T06:13:11;22.40;99.90
770;DHT22;368;48.698;9.116;2023-08-20T06:15:38;22.60;99.90
770;DHT22;368;48.698;9.116;2023-08-20T06:18:05;22.90;99.90
770;DHT22;368;48.698;9.116;2023-08-20T06:20:33;23.40;99.90
770;DHT22;368;48.698;9.116;2023-08-20T06:23:00;23.60;99.90
770;DHT22;368;48.698;9.116;2023-08-20T06:25:27;23.90;99.90
770;DHT22;368;48.698;9.116;2023-08-20T06:27:54;24.10;99.90
770;DHT22;368;48.698;9.116;2023-08-20T06:30:20;24.30;99.90
770;DHT22;368;48.698;9.116;2023-08-20T06:32:47;24.50;99.90
770;DHT22;368;48.698;9.116;2023-08-20T06:35:14;24.50;99.90
770;DHT22;368;48.698;9.116;2023-08-20T06:37:42;24.40;99.90
770;DHT22;368;48.698;9.116;2023-08-20T06:40:09;24.80;99.90
770;DHT22;368;48.698;9.116;2023-08-20T06:42:36;24.90;99.90
770;DHT22;368;48.698;9.116;2023-08-20T06:45:04;25.20;99.90
770;DHT22;368;48.698;9.116;2023-08-20T06:47:30;25.30;99.90
770;DHT22;368;48.698;9.116;2023-08-20T06:49:57;25.30;99.90
770;DHT22;368;48.698;9.116;2023-08-20T06:52:24;25.80;99.90
770;DHT22;368;48.698;9.116;2023-08-20T06:54:52;26.00;99.90
770;DHT22;368;48.698;9.116;2023-08-20T06:57:19;26.00;99.90
770;DHT22;368;48.698;9.116;2023-08-20T06:59:46;26.10;99.90
770;DHT22;368;48.698;9.116;2023-08-20T07:02:13;26.20;99.90
770;DHT22;368;48.698;9.116;2023-08-20T07:04:40;26.00;99.90
770;DHT22;368;48.698;9.116;2023-08-20T07:07:07;26.10;99.90
770;DHT22;368;48.698;9.116;2023-08-20T07:09:35;25.70;99.90
770;DHT22;368;48.698;9.116;2023-08-20T07:12:05;25.60;99.90
770;DHT22;368;48.698;9.116;2023-08-20T07:14:32;25.70;99.90
770;DHT22;368;48.698;9.116;2023-08-20T07:16:59;26.10;99.90
770;DHT22;368;48.698;9.116;2023-08-20T07:19:28;26.20;99.90
770;DHT22;368;48.698;9.116;2023-08-20T07:21:55;26.80;99.90
770;DHT22;368;48.698;9.116;2023-08-20T07:24:22;27.00;99.90
770;DHT22;368;48.698;9.116;2023-08-20T07:26:51;27.60;99.90
770;DHT22;368;48.698;9.116;2023-08-20T07:29:19;29.00;99.90
770;DHT22;368;48.698;9.116;2023-08-20T07:31:46;29.60;99.90
770;DHT22;368;48.698;9.116;2023-08-20T07:34:13;28.40;99.90
770;DHT22;368;48.698;9.116;2023-08-20T07:36:39;28.10;99.90
770;DHT22;368;48.698;9.116;2023-08-20T07:39:06;28.80;99.90
770;DHT22;368;48.698;9.116;2023-08-20T07:41:34;28.80;99.90
770;DHT22;368;48.698;9.116;2023-08-20T07:44:01;29.60;99.90
770;DHT22;368;48.698;9.116;2023-08-20T07:46:29;30.80;99.90
770;DHT22;368;48.698;9.116;2023-08-20T07:48:56;31.30;99.80
770;DHT22;368;48.698;9.116;2023-08-20T07:51:22;30.40;99.10
770;DHT22;368;48.698;9.116;2023-08-20T07:53:49;29.80;99.90
770;DHT22;368;48.698;9.116;2023-08-20T07:56:16;29.30;99.90
770;DHT22;368;48.698;9.116;2023-08-20T07:58:43;29.30;99.90
770;DHT22;368;48.698;9.116;2023-08-20T08:01:09;29.60;99.90
770;DHT22;368;48.698;9.116;2023-08-20T08:03:39;30.60;99.90
770;DHT22;368;48.698;9.116;2023-08-20T08:06:06;31.90;97.70
770;DHT22;368;48.698;9.116;2023-08-20T08:08:33;31.60;95.70
770;DHT22;368;48.698;9.116;2023-08-20T08:10:59;31.10;97.10
770;DHT22;368;48.698;9.116;2023-08-20T08:13:26;30.90;96.10
770;DHT22;368;48.698;9.116;2023-08-20T08:15:53;30.50;97.40
770;DHT22;368;48.698;9.116;2023-08-20T08:18:20;31.40;96.40
770;DHT22;368;48.698;9.116;2023-08-20T08:20:49;32.10;95.00
770;DHT22;368;48.698;9.116;2023-08-20T08:23:16;32.00;93.70
770;DHT22;368;48.698;9.116;2023-08-20T08:25:43;32.00;93.70
770;DHT22;368;48.698;9.116;2023-08-20T08:28:09;32.30;92.40
770;DHT22;368;48.698;9.116;2023-08-20T08:30:37;32.20;92.60
770;DHT22;368;48.698;9.116;2023-08-20T08:33:05;32.10;93.60
770;DHT22;368;48.698;9.116;2023-08-20T08:35:32;32.80;93.90
770;DHT22;368;48.698;9.116;2023-08-20T08:38:00;32.50;94.10
770;DHT22;368;48.698;9.116;2023-08-20T08:40:29;32.00;94.50
770;DHT22;368;48.698;9.116;2023-08-20T08:42:56;32.30;94.90
770;DHT22;368;48.698;9.116;2023-08-20T08:45:23;33.70;93.20
770;DHT22;368;48.698;9.116;2023-08-20T08:47:51;33.10;92.70
770;DHT22;368;48.698;9.116;2023-08-20T08:50:20;34.70;91.70
770;DHT22;368;48.698;9.116;2023-08-20T08:52:51;34.30;91.50
770;DHT22;368;48.698;9.116;2023-08-20T08:55:20;34.60;91.50
770;DHT22;368;48.698;9.116;2023-08-20T08:57:47;35.70;90.20
770;DHT22;368;48.698;9.116;2023-08-20T09:00:14;35.90;88.20
770;DHT22;368;48.698;9.116;2023-08-20T09:02:41;36.00;86.00
770;DHT22;368;48.698;9.116;2023-08-20T09:05:08;35.70;86.00
770;DHT22;368;48.698;9.116;2023-08-20T09:07:35;36.00;85.60
770;DHT22;368;48.698;9.116;2023-08-20T09:10:04;32.60;91.50
770;DHT22;368;48.698;9.116;2023-08-20T09:12:34;33.40;91.40
770;DHT22;368;48.698;9.116;2023-08-20T09:15:01;35.30;88.00
770;DHT22;368;48.698;9.116;2023-08-20T09:17:28;34.70;84.30
770;DHT22;368;48.698;9.116;2023-08-20T09:19:57;34.10;88.30
770;DHT22;368;48.698;9.116;2023-08-20T09:22:24;34.40;87.80
770;DHT22;368;48.698;9.116;2023-08-20T09:24:55;35.70;85.10
770;DHT22;368;48.698;9.116;2023-08-20T09:27:22;36.50;81.30
770;DHT22;368;48.698;9.116;2023-08-20T09:29:52;36.70;80.10
770;DHT22;368;48.698;9.116;2023-08-20T09:32:21;36.80;79.40
770;DHT22;368;48.698;9.116;2023-08-20T09:34:49;35.50;81.80
770;DHT22;368;48.698;9.116;2023-08-20T09:37:17;35.50;82.00
770;DHT22;368;48.698;9.116;2023-08-20T09:39:44;36.70;79.00
770;DHT22;368;48.698;9.116;2023-08-20T09:42:13;37.20;77.20
770;DHT22;368;48.698;9.116;2023-08-20T09:44:41;38.00;74.70
770;DHT22;368;48.698;9.116;2023-08-20T09:47:10;38.00;71.50
770;DHT22;368;48.698;9.116;2023-08-20T09:49:38;37.00;76.00
770;DHT22;368;48.698;9.116;2023-08-20T09:52:07;37.10;74.40
770;DHT22;368;48.698;9.116;2023-08-20T09:54:47;37.30;73.80
770;DHT22;368;48.698;9.116;2023-08-20T09:57:25;38.50;71.10
770;DHT22;368;48.698;9.116;2023-08-20T09:59:53;38.90;69.50
770;DHT22;368;48.698;9.116;2023-08-20T10:02:21;37.80;70.60
770;DHT22;368;48.698;9.116;2023-08-20T10:04:49;36.30;75.80
770;DHT22;368;48.698;9.116;2023-08-20T10:07:17;37.10;72.50
770;DHT22;368;48.698;9.116;2023-08-20T10:09:46;35.40;76.70
770;DHT22;368;48.698;9.116;2023-08-20T10:12:16;35.80;75.40
770;DHT22;368;48.698;9.116;2023-08-20T10:14:43;36.00;78.60
770;DHT22;368;48.698;9.116;2023-08-20T10:17:11;36.70;76.30
770;DHT22;368;48.698;9.116;2023-08-20T10:19:42;37.60;71.90
770;DHT22;368;48.698;9.116;2023-08-20T10:22:09;37.40;69.70
770;DHT22;368;48.698;9.116;2023-08-20T10:24:48;37.70;69.30
770;DHT22;368;48.698;9.116;2023-08-20T10:27:24;38.40;68.60
770;DHT22;368;48.698;9.116;2023-08-20T10:29:53;38.00;69.10
770;DHT22;368;48.698;9.116;2023-08-20T10:32:20;35.90;72.50
770;DHT22;368;48.698;9.116;2023-08-20T10:34:51;36.10;71.00
770;DHT22;368;48.698;9.116;2023-08-20T10:37:26;37.20;68.70
770;DHT22;368;48.698;9.116;2023-08-20T10:39:54;38.00;67.40
770;DHT22;368;48.698;9.116;2023-08-20T10:42:25;37.70;67.40
770;DHT22;368;48.698;9.116;2023-08-20T10:45:04;38.30;67.70
770;DHT22;368;48.698;9.116;2023-08-20T10:47:41;39.20;64.70
770;DHT22;368;48.698;9.116;2023-08-20T10:50:10;39.30;66.20
770;DHT22;368;48.698;9.116;2023-08-20T10:52:40;39.50;65.30
770;DHT22;368;48.698;9.116;2023-08-20T10:55:08;38.70;65.00
770;DHT22;368;48.698;9.116;2023-08-20T10:57:35;39.00;63.20
770;DHT22;368;48.698;9.116;2023-08-20T11:00:04;37.90;64.80
770;DHT22;368;48.698;9.116;2023-08-20T11:02:36;39.30;63.00
770;DHT22;368;48.698;9.116;2023-08-20T11:05:07;40.40;60.60
770;DHT22;368;48.698;9.116;2023-08-20T11:07:45;40.80;58.60
770;DHT22;368;48.698;9.116;2023-08-20T11:10:13;39.90;60.50
770;DHT22;368;48.698;9.116;2023-08-20T11:12:40;38.40;60.70
770;DHT22;368;48.698;9.116;2023-08-20T11:15:09;38.00;63.80
770;DHT22;368;48.698;9.116;2023-08-20T11:17:40;39.90;60.60
770;DHT22;368;48.698;9.116;2023-08-20T11:20:08;39.50;60.90
770;DHT22;368;48.698;9.116;2023-08-20T11:22:35;40.30;61.00
770;DHT22;368;48.698;9.116;2023-08-20T11:25:04;40.90;57.60
770;DHT22;368;48.698;9.116;2023-08-20T11:27:31;40.70;57.30
770;DHT22;368;48.698;9.116;2023-08-20T11:29:58;39.40;59.50
770;DHT22;368;48.698;9.116;2023-08-20T11:32:25;40.60;59.00
770;DHT22;368;48.698;9.116;2023-08-20T11:34:52;40.40;57.60
770;DHT22;368;48.698;9.116;2023-08-20T11:37:20;40.00;58.80
770;DHT22;368;48.698;9.116;2023-08-20T11:39:47;40.30;57.90
770;DHT22;368;48.698;9.116;2023-08-20T11:42:16;38.70;59.90
770;DHT22;368;48.698;9.116;2023-08-20T11:44:43;39.20;60.90
770;DHT22;368;48.698;9.116;2023-08-20T11:47:14;38.60;59.90
770;DHT22;368;48.698;9.116;2023-08-20T11:49:41;39.30;59.70
770;DHT22;368;48.698;9.116;2023-08-20T11:52:08;40.90;56.60
770;DHT22;368;48.698;9.116;2023-08-20T11:54:36;40.40;56.20
770;DHT22;368;48.698;9.116;2023-08-20T11:57:05;40.40;57.10
770;DHT22;368;48.698;9.116;2023-08-20T11:59:33;41.30;57.60
770;DHT22;368;48.698;9.116;2023-08-20T12:02:02;41.80;54.40
770;DHT22;368;48.698;9.116;2023-08-20T12:04:30;41.20;54.50
770;DHT22;368;48.698;9.116;2023-08-20T12:07:04;38.70;57.90
770;DHT22;368;48.698;9.116;2023-08-20T12:09:32;40.40;57.50
770;DHT22;368;48.698;9.116;2023-08-20T12:11:59;40.20;56.90
770;DHT22;368;48.698;9.116;2023-08-20T12:14:26;40.30;57.60
770;DHT22;368;48.698;9.116;2023-08-20T12:16:55;41.70;56.50
770;DHT22;368;48.698;9.116;2023-08-20T12:19:22;41.80;53.20
770;DHT22;368;48.698;9.116;2023-08-20T12:21:49;41.50;54.00
770;DHT22;368;48.698;9.116;2023-08-20T12:24:16;40.40;57.00
770;DHT22;368;48.698;9.116;2023-08-20T12:26:44;39.30;57.90
770;DHT22;368;48.698;9.116;2023-08-20T12:29:11;40.00;57.40
770;DHT22;368;48.698;9.116;2023-08-20T12:31:40;39.60;57.40
770;DHT22;368;48.698;9.116;2023-08-20T12:34:08;41.00;56.10
770;DHT22;368;48.698;9.116;2023-08-20T12:36:35;40.60;55.00
770;DHT22;368;48.698;9.116;2023-08-20T12:39:03;40.30;56.20
770;DHT22;368;48.698;9.116;2023-08-20T12:41:30;41.30;54.30
770;DHT22;368;48.698;9.116;2023-08-20T12:43:57;41.80;53.50
770;DHT22;368;48.698;9.116;2023-08-20T12:46:25;41.10;55.40
770;DHT22;368;48.698;9.116;2023-08-20T12:48:51;41.50;54.00
770;DHT22;368;48.698;9.116;2023-08-20T12:51:20;42.30;53.30
770;DHT22;368;48.698;9.116;2023-08-20T12:53:47;41.30;52.80
770;DHT22;368;48.698;9.116;2023-08-20T12:56:14;41.50;54.20
770;DHT22;368;48.698;9.116;2023-08-20T12:58:41;41.60;53.00
770;DHT22;368;48.698;9.116;2023-08-20T13:01:08;39.90;54.10
770;DHT22;368;48.698;9.116;2023-08-20T13:03:35;39.30;56.40
770;DHT22;368;48.698;9.116;2023-08-20T13:06:04;39.10;57.10
770;DHT22;368;48.698;9.116;2023-08-20T13:08:33;38.80;56.80
770;DHT22;368;48.698;9.116;2023-08-20T13:11:00;40.10;56.00
770;DHT22;368;48.698;9.116;2023-08-20T13:13:28;40.20;55.00
770;DHT22;368;48.698;9.116;2023-08-20T13:15:58;40.10;55.20
770;DHT22;368;48.698;9.116;2023-08-20T13:18:26;40.70;54.00
770;DHT22;368;48.698;9.116;2023-08-20T13:20:53;40.50;54.50
770;DHT22;368;48.698;9.116;2023-08-20T13:23:20;41.10;53.10
770;DHT22;368;48.698;9.116;2023-08-20T13:25:48;41.20;53.30
770;DHT22;368;48.698;9.116;2023-08-20T13:28:14;40.90;53.10
770;DHT22;368;48.698;9.116;2023-08-20T13:30:41;40.20;53.70
770;DHT22;368;48.698;9.116;2023-08-20T13:33:08;40.00;54.80
770;DHT22;368;48.698;9.116;2023-08-20T13:35:35;42.80;51.20
770;DHT22;368;48.698;9.116;2023-08-20T13:38:01;41.90;51.50
770;DHT22;368;48.698;9.116;2023-08-20T13:40:30;39.60;54.30
770;DHT22;368;48.698;9.116;2023-08-20T13:42:58;40.00;53.80
770;DHT22;368;48.698;9.116;2023-08-20T13:45:25;40.60;53.30
770;DHT22;368;48.698;9.116;2023-08-20T13:47:52;40.40;53.70
770;DHT22;368;48.698;9.116;2023-08-20T13:50:18;39.80;53.70
770;DHT22;368;48.698;9.116;2023-08-20T13:52:45;40.20;53.50
770;DHT22;368;48.698;9.116;2023-08-20T13:55:12;40.80;52.00
770;DHT22;368;48.698;9.116;2023-08-20T13:57:39;41.00;52.20
770;DHT22;368;48.698;9.116;2023-08-20T14:00:08;41.40;52.00
770;DHT22;368;48.698;9.116;2023-08-20T14:02:37;40.20;52.80
770;DHT22;368;48.698;9.116;2023-08-20T14:05:05;40.70;52.60
770;DHT22;368;48.698;9.116;2023-08-20T14:07:32;39.60;53.30
770;DHT22;368;48.698;9.116;2023-08-20T14:09:59;40.30;54.10
770;DHT22;368;48.698;9.116;2023-08-20T14:12:26;41.30;52.00
770;DHT22;368;48.698;9.116;2023-08-20T14:14:53;41.70;51.60
770;DHT22;368;48.698;9.116;2023-08-20T14:17:21;40.70;51.30
770;DHT22;368;48.698;9.116;2023-08-20T14:19:48;40.70;52.20
770;DHT22;368;48.698;9.116;2023-08-20T14:22:15;38.00;55.00
770;DHT22;368;48.698;9.116;2023-08-20T14:24:41;35.90;58.00
770;DHT22;368;48.698;9.116;2023-08-20T14:27:08;35.80;58.80
770;DHT22;368;48.698;9.116;2023-08-20T14:29:35;35.40;60.80
770;DHT22;368;48.698;9.116;2023-08-20T14:32:02;35.00;61.30
770;DHT22;368;48.698;9.116;2023-08-20T14:34:32;34.80;63.00
770;DHT22;368;48.698;9.116;2023-08-20T14:36:58;34.40;63.80
770;DHT22;368;48.698;9.116;2023-08-20T14:39:25;34.80;63.50
770;DHT22;368;48.698;9.116;2023-08-20T14:41:52;34.70;64.00
770;DHT22;368;48.698;9.116;2023-08-20T14:44:19;33.70;66.20
770;DHT22;368;48.698;9.116;2023-08-20T14:46:45;33.20;67.60
770;DHT22;368;48.698;9.116;2023-08-20T14:49:12;33.20;68.00
770;DHT22;368;48.698;9.116;2023-08-20T14:51:40;32.90;68.80
770;DHT22;368;48.698;9.116;2023-08-20T14:54:07;32.90;69.30
770;DHT22;368;48.698;9.116;2023-08-20T14:56:34;32.90;69.70
770;DHT22;368;48.698;9.116;2023-08-20T14:59:01;32.80;70.00
770;DHT22;368;48.698;9.116;2023-08-20T15:01:29;33.10;69.60
770;DHT22;368;48.698;9.116;2023-08-20T15:03:56;33.10;69.60
770;DHT22;368;48.698;9.116;2023-08-20T15:06:23;33.10;69.10
770;DHT22;368;48.698;9.116;2023-08-20T15:08:53;33.20;69.00
770;DHT22;368;48.698;9.116;2023-08-20T15:11:20;33.40;69.20
770;DHT22;368;48.698;9.116;2023-08-20T15:13:46;33.50;68.60
770;DHT22;368;48.698;9.116;2023-08-20T15:16:13;33.80;68.80
770;DHT22;368;48.698;9.116;2023-08-20T15:18:40;33.80;67.30
770;DHT22;368;48.698;9.116;2023-08-20T15:21:07;33.40;68.60
770;DHT22;368;48.698;9.116;2023-08-20T15:23:35;33.30;68.40
770;DHT22;368;48.698;9.116;2023-08-20T15:26:03;33.40;69.10
770;DHT22;368;48.698;9.116;2023-08-20T15:28:30;33.00;69.00
770;DHT22;368;48.698;9.116;2023-08-20T15:30:57;33.20;68.50
770;DHT22;368;48.698;9.116;2023-08-20T15:33:24;33.30;69.60
770;DHT22;368;48.698;9.116;2023-08-20T15:35:51;33.00;69.90
770;DHT22;368;48.698;9.116;2023-08-20T15:38:18;33.00;68.90
770;DHT22;368;48.698;9.116;2023-08-20T15:40:44;32.60;71.10
770;DHT22;368;48.698;9.116;2023-08-20T15:43:13;32.10;71.30
770;DHT22;368;48.698;9.116;2023-08-20T15:45:40;32.10;71.50
770;DHT22;368;48.698;9.116;2023-08-20T15:48:07;32.20;71.80
770;DHT22;368;48.698;9.116;2023-08-20T15:50:34;32.20;70.80
770;DHT22;368;48.698;9.116;2023-08-20T15:53:01;32.10;71.10
770;DHT22;368;48.698;9.116;2023-08-20T15:55:28;32.10;71.90
770;DHT22;368;48.698;9.116;2023-08-20T15:57:55;31.70;72.50
770;DHT22;368;48.698;9.116;2023-08-20T16:00:23;31.50;73.30
770;DHT22;368;48.698;9.116;2023-08-20T16:02:50;31.60;72.80
770;DHT22;368;48.698;9.116;2023-08-20T16:05:17;31.60;73.20
770;DHT22;368;48.698;9.116;2023-08-20T16:07:44;31.60;73.20
770;DHT22;368;48.698;9.116;2023-08-20T16:10:11;31.40;72.70
770;DHT22;368;48.698;9.116;2023-08-20T16:12:38;31.70;72.10
770;DHT22;368;48.698;9.116;2023-08-20T16:15:06;31.60;72.90
770;DHT22;368;48.698;9.116;2023-08-20T16:17:34;31.20;74.00
770;DHT22;368;48.698;9.116;2023-08-20T16:20:01;31.30;74.80
770;DHT22;368;48.698;9.116;2023-08-20T16:22:28;31.50;73.40
770;DHT22;368;48.698;9.116;2023-08-20T16:24:55;31.40;74.70
770;DHT22;368;48.698;9.116;2023-08-20T16:27:22;31.30;75.60
770;DHT22;368;48.698;9.116;2023-08-20T16:29:49;31.50;74.50
770;DHT22;368;48.698;9.116;2023-08-20T16:32:16;31.50;74.80
770;DHT22;368;48.698;9.116;2023-08-20T16:34:44;31.70;74.30
770;DHT22;368;48.698;9.116;2023-08-20T16:37:12;31.60;73.50